Time;durP1;ratioP1;P1;durP2;ratioP2;P2;SDS_P1;SDS_P2;PMS_P1;PMS_P2;Temp;Humidity;BMP_temperature;BMP_pressure;BME280_temperature;BME280_humidity;BME280_pressure;Samples;Min_cycle;Max_cycle;Signal;HPM_P1;HPM_P2
2023/10/02 00:01:17;;;;;;;;;;;19.80;87.10;;;;;;5114673;28;19912;-54
2023/10/02 00:03:48;;;;;;;;;;;19.70;87.00;;;;;;5114372;28;21302;-55
2023/10/02 00:06:16;;;;;;;;;;;19.80;87.30;;;;;;5115000;28;19939;-55
2023/10/02 00:08:49;;;;;;;;;;;19.80;87.30;;;;;;5114634;28;19954;-55
2023/10/02 00:11:36;;;;;;;;;;;19.80;87.30;;;;;;5121518;28;19908;-55
2023/10/02 00:14:18;;;;;;;;;;;19.70;87.40;;;;;;5114463;28;20002;-55
2023/10/02 00:16:58;;;;;;;;;;;19.70;87.30;;;;;;5098136;28;19908;-54
2023/10/02 00:19:30;;;;;;;;;;;19.70;87.40;;;;;;5121152;28;19957;-54
2023/10/02 00:21:57;;;;;;;;;;;19.70;87.50;;;;;;5114337;28;19916;-55
2023/10/02 00:24:24;;;;;;;;;;;19.70;87.60;;;;;;5114430;28;19939;-55
2023/10/02 00:26:51;;;;;;;;;;;19.70;87.60;;;;;;5114502;28;20388;-54
2023/10/02 00:29:17;;;;;;;;;;;19.70;87.50;;;;;;5114329;28;19943;-54
2023/10/02 00:31:46;;;;;;;;;;;19.70;87.40;;;;;;5114184;28;20481;-55
2023/10/02 00:34:13;;;;;;;;;;;19.70;87.40;;;;;;5114100;28;20348;-55
2023/10/02 00:36:39;;;;;;;;;;;19.70;87.30;;;;;;5095770;28;19907;-54
2023/10/02 00:44:52;;;;;;;;;;;19.80;87.20;;;;;;5114066;28;19961;-54
2023/10/02 00:47:42;;;;;;;;;;;19.80;87.00;;;;;;5114130;28;19908;-55
2023/10/02 00:50:16;;;;;;;;;;;19.80;87.00;;;;;;5097925;28;19932;-53
2023/10/02 00:53:04;;;;;;;;;;;19.80;86.80;;;;;;5114852;28;19919;-54
2023/10/02 00:55:31;;;;;;;;;;;19.80;86.80;;;;;;5120575;28;19957;-54
2023/10/02 00:57:57;;;;;;;;;;;19.80;86.70;;;;;;5095770;28;20377;-54
2023/10/02 01:00:35;;;;;;;;;;;19.80;86.90;;;;;;5112756;28;19916;-55
2023/10/02 01:03:01;;;;;;;;;;;19.80;87.00;;;;;;5113631;28;19908;-55
2023/10/02 01:05:41;;;;;;;;;;;19.80;87.20;;;;;;5113673;28;20425;-54
2023/10/02 01:08:23;;;;;;;;;;;19.80;87.10;;;;;;5120367;28;19915;-55
2023/10/02 01:10:56;;;;;;;;;;;19.80;87.10;;;;;;5113677;28;19930;-54
2023/10/02 01:13:24;;;;;;;;;;;19.80;87.10;;;;;;5113364;28;19914;-55
2023/10/02 01:15:50;;;;;;;;;;;19.80;87.10;;;;;;5113495;28;20368;-55
2023/10/02 01:18:22;;;;;;;;;;;19.80;87.10;;;;;;5113421;28;19913;-55
2023/10/02 01:20:48;;;;;;;;;;;19.80;87.20;;;;;;5095083;28;19934;-54
2023/10/02 01:23:17;;;;;;;;;;;19.80;87.10;;;;;;5095383;28;19908;-54
2023/10/02 01:25:44;;;;;;;;;;;19.80;87.10;;;;;;5095185;28;19908;-55
2023/10/02 01:28:11;;;;;;;;;;;19.80;87.30;;;;;;5113332;28;20260;-54
2023/10/02 01:30:37;;;;;;;;;;;19.80;87.10;;;;;;5113351;28;19908;-55
2023/10/02 01:33:14;;;;;;;;;;;19.80;87.10;;;;;;5113284;28;19907;-54
2023/10/02 01:35:46;;;;;;;;;;;19.80;87.30;;;;;;5096743;28;19908;-54
2023/10/02 01:38:14;;;;;;;;;;;19.80;87.10;;;;;;5120131;28;20284;-55
2023/10/02 01:40:44;;;;;;;;;;;19.80;87.10;;;;;;5095422;28;20010;-54
2023/10/02 01:43:12;;;;;;;;;;;19.80;87.10;;;;;;5113241;28;20001;-55
2023/10/02 01:45:44;;;;;;;;;;;19.80;87.10;;;;;;5113250;28;19907;-55
2023/10/02 01:48:14;;;;;;;;;;;19.80;87.30;;;;;;5113381;28;19915;-55
2023/10/02 01:50:42;;;;;;;;;;;19.80;87.30;;;;;;5113178;28;20338;-55
2023/10/02 01:53:26;;;;;;;;;;;19.80;87.30;;;;;;5113135;28;19915;-55
2023/10/02 01:55:53;;;;;;;;;;;19.80;87.20;;;;;;5119975;28;19914;-54
2023/10/02 01:58:18;;;;;;;;;;;19.80;87.30;;;;;;5113168;28;19913;-54
2023/10/02 02:00:45;;;;;;;;;;;19.80;87.10;;;;;;5113032;28;19980;-53
2023/10/02 02:03:17;;;;;;;;;;;19.80;87.20;;;;;;5112984;28;19907;-54
2023/10/02 02:05:46;;;;;;;;;;;19.80;87.30;;;;;;5113383;28;19908;-55
2023/10/02 02:08:24;;;;;;;;;;;19.80;87.50;;;;;;5094678;28;20367;-54
2023/10/02 02:10:50;;;;;;;;;;;19.70;87.30;;;;;;5113678;28;19915;-55
2023/10/02 02:13:16;;;;;;;;;;;19.70;87.50;;;;;;5098456;28;19956;-54
2023/10/02 02:15:45;;;;;;;;;;;19.70;87.50;;;;;;5116799;28;20362;-55
2023/10/02 02:18:11;;;;;;;;;;;19.80;87.70;;;;;;5098532;28;19908;-54
2023/10/02 02:20:57;;;;;;;;;;;19.70;87.60;;;;;;5116646;28;20033;-53
2023/10/02 02:23:24;;;;;;;;;;;19.70;87.60;;;;;;5116631;28;19912;-54
2023/10/02 02:25:50;;;;;;;;;;;19.70;87.60;;;;;;5116623;28;20288;-55
2023/10/02 02:28:15;;;;;;;;;;;19.70;87.60;;;;;;5116733;28;19956;-55
2023/10/02 02:30:42;;;;;;;;;;;19.70;87.60;;;;;;5116550;28;19912;-56
2023/10/02 02:33:08;;;;;;;;;;;19.70;87.60;;;;;;5116474;28;19907;-55
2023/10/02 02:35:35;;;;;;;;;;;19.70;87.40;;;;;;5116448;28;19934;-54
2023/10/02 02:38:02;;;;;;;;;;;19.80;87.50;;;;;;5116297;28;19914;-55
2023/10/02 02:40:30;;;;;;;;;;;19.80;87.30;;;;;;5116256;28;19919;-55
2023/10/02 02:42:56;;;;;;;;;;;19.80;87.40;;;;;;5116171;28;20395;-55
2023/10/02 02:45:28;;;;;;;;;;;19.80;87.50;;;;;;5116306;28;20387;-54
2023/10/02 02:47:57;;;;;;;;;;;19.80;87.40;;;;;;5116227;28;19908;-55
2023/10/02 02:50:28;;;;;;;;;;;19.80;87.50;;;;;;5116173;28;19908;-54
2023/10/02 02:53:16;;;;;;;;;;;19.70;87.50;;;;;;5115975;28;20377;-55
2023/10/02 02:55:39;;;;;;;;;;;19.80;87.40;;;;;;5115890;28;19907;-54
2023/10/02 02:58:07;;;;;;;;;;;19.80;87.40;;;;;;5116030;28;20352;-55
2023/10/02 03:00:35;;;;;;;;;;;19.80;87.40;;;;;;5116064;28;20015;-55
2023/10/02 03:03:01;;;;;;;;;;;19.80;87.40;;;;;;5116124;28;20317;-55
2023/10/02 03:05:40;;;;;;;;;;;19.80;87.50;;;;;;5116006;28;20006;-54
2023/10/02 03:08:06;;;;;;;;;;;19.80;87.50;;;;;;5115754;28;19919;-55
2023/10/02 03:10:46;;;;;;;;;;;19.80;87.30;;;;;;5115707;28;19908;-55
2023/10/02 03:13:17;;;;;;;;;;;19.70;87.10;;;;;;5099696;28;20269;-54
2023/10/02 03:15:46;;;;;;;;;;;19.80;87.30;;;;;;5115796;28;19943;-53
2023/10/02 03:18:36;;;;;;;;;;;19.80;87.10;;;;;;5115607;28;19980;-55
2023/10/02 03:20:58;;;;;;;;;;;19.70;87.10;;;;;;5115081;28;20286;-55
2023/10/02 03:23:27;;;;;;;;;;;19.80;87.30;;;;;;5114520;28;19908;-55
2023/10/02 03:25:56;;;;;;;;;;;19.80;87.10;;;;;;5115427;28;19915;-55
2023/10/02 03:28:27;;;;;;;;;;;19.80;87.20;;;;;;5097202;28;19922;-55
2023/10/02 03:30:53;;;;;;;;;;;19.80;87.30;;;;;;5115384;28;20036;-54
2023/10/02 03:33:20;;;;;;;;;;;19.80;87.30;;;;;;5115439;28;19941;-55
2023/10/02 03:36:10;;;;;;;;;;;19.70;87.40;;;;;;5115307;28;19908;-54
2023/10/02 03:38:42;;;;;;;;;;;19.70;87.30;;;;;;5115316;28;20006;-54
2023/10/02 03:41:09;;;;;;;;;;;19.70;87.20;;;;;;5097836;28;19912;-54
2023/10/02 03:43:34;;;;;;;;;;;19.80;87.50;;;;;;5115225;28;20347;-55
2023/10/02 03:46:06;;;;;;;;;;;19.70;87.30;;;;;;5115137;28;19915;-54
2023/10/02 03:48:32;;;;;;;;;;;19.70;87.10;;;;;;5115091;28;19957;-55
2023/10/02 03:50:59;;;;;;;;;;;19.70;87.20;;;;;;5114798;28;20359;-54
2023/10/02 03:53:31;;;;;;;;;;;19.70;87.10;;;;;;5114937;28;19912;-54
2023/10/02 03:55:59;;;;;;;;;;;19.80;87.30;;;;;;5114959;28;19912;-54
2023/10/02 03:58:38;;;;;;;;;;;19.70;87.10;;;;;;5114800;28;19908;-54
2023/10/02 04:01:08;;;;;;;;;;;19.70;87.20;;;;;;5121674;28;19930;-54
2023/10/02 04:03:52;;;;;;;;;;;19.70;87.20;;;;;;5114652;28;19950;-54
2023/10/02 04:06:33;;;;;;;;;;;19.70;87.00;;;;;;5115086;28;19908;-54
2023/10/02 04:11:46;;;;;;;;;;;19.70;86.90;;;;;;5114978;28;20389;-54
2023/10/02 04:14:17;;;;;;;;;;;19.70;86.90;;;;;;5114520;28;19908;-55
2023/10/02 04:16:49;;;;;;;;;;;19.70;86.80;;;;;;5114663;28;19921;-54
2023/10/02 04:19:23;;;;;;;;;;;19.70;86.70;;;;;;5114476;28;19974;-54
2023/10/02 04:21:50;;;;;;;;;;;19.70;86.90;;;;;;5104408;28;19922;-55
2023/10/02 04:24:23;;;;;;;;;;;19.70;86.60;;;;;;5114327;28;19912;-55
2023/10/02 04:26:53;;;;;;;;;;;19.70;86.50;;;;;;5094346;28;19908;-55
2023/10/02 04:29:26;;;;;;;;;;;19.70;86.60;;;;;;5092903;28;19938;-54
2023/10/02 04:32:11;;;;;;;;;;;19.70;86.70;;;;;;5093844;28;20277;-55
2023/10/02 04:34:37;;;;;;;;;;;19.70;86.60;;;;;;5093795;28;20375;-54
2023/10/02 04:37:19;;;;;;;;;;;19.70;86.70;;;;;;5093829;28;19915;-55
2023/10/02 04:40:07;;;;;;;;;;;19.70;86.60;;;;;;5093930;28;19912;-55
2023/10/02 04:45:20;;;;;;;;;;;19.70;86.70;;;;;;5093798;28;19915;-55
2023/10/02 04:47:48;;;;;;;;;;;19.60;86.60;;;;;;5093532;28;19912;-55
2023/10/02 04:53:00;;;;;;;;;;;19.70;86.70;;;;;;5093384;28;19923;-54
2023/10/02 04:55:27;;;;;;;;;;;19.60;86.70;;;;;;5103191;28;19943;-55
2023/10/02 04:58:02;;;;;;;;;;;19.60;86.70;;;;;;5095821;28;19950;-55
2023/10/02 05:00:32;;;;;;;;;;;19.60;86.80;;;;;;5120433;28;19988;-54
2023/10/02 05:03:24;;;;;;;;;;;19.60;86.70;;;;;;5096067;28;19908;-54
2023/10/02 05:05:53;;;;;;;;;;;19.60;86.70;;;;;;5113589;28;20260;-54
2023/10/02 05:08:29;;;;;;;;;;;19.60;86.80;;;;;;5113680;28;19907;-55
2023/10/02 05:11:04;;;;;;;;;;;19.60;86.90;;;;;;5103269;28;20325;-54
2023/10/02 05:13:53;;;;;;;;;;;19.60;87.00;;;;;;5113478;28;19908;-55
2023/10/02 05:16:37;;;;;;;;;;;19.60;86.90;;;;;;5098921;28;20342;-54
2023/10/02 05:19:09;;;;;;;;;;;19.60;86.90;;;;;;5113470;28;19912;-53
2023/10/02 05:21:49;;;;;;;;;;;19.60;86.90;;;;;;5113582;28;19918;-55
2023/10/02 05:24:15;;;;;;;;;;;19.60;86.90;;;;;;5120377;28;19914;-54
2023/10/02 05:26:44;;;;;;;;;;;19.60;86.80;;;;;;5113472;28;20415;-55
2023/10/02 05:29:12;;;;;;;;;;;19.60;86.60;;;;;;5095117;28;19912;-54
2023/10/02 05:31:40;;;;;;;;;;;19.60;86.70;;;;;;5113448;28;20363;-55
2023/10/02 05:34:07;;;;;;;;;;;19.60;86.70;;;;;;5113293;28;20365;-54
2023/10/02 05:36:32;;;;;;;;;;;19.60;86.70;;;;;;5113426;28;19953;-55
2023/10/02 05:41:46;;;;;;;;;;;19.60;86.70;;;;;;5113403;28;20387;-54
2023/10/02 05:44:23;;;;;;;;;;;19.60;86.80;;;;;;5113117;28;20002;-54
2023/10/02 05:47:04;;;;;;;;;;;19.60;86.90;;;;;;5122707;28;19907;-55
2023/10/02 05:49:33;;;;;;;;;;;19.60;86.90;;;;;;5117423;28;20003;-54
2023/10/02 05:52:00;;;;;;;;;;;19.60;86.90;;;;;;5117209;28;19916;-55
2023/10/02 05:54:29;;;;;;;;;;;19.60;86.90;;;;;;5117288;28;19911;-54
2023/10/02 05:57:09;;;;;;;;;;;19.60;86.90;;;;;;5117241;28;19908;-55
2023/10/02 05:59:45;;;;;;;;;;;19.60;86.90;;;;;;5117057;28;20006;-55
2023/10/02 06:02:19;;;;;;;;;;;19.60;86.90;;;;;;5099338;28;19911;-55
2023/10/02 06:04:47;;;;;;;;;;;19.60;86.90;;;;;;5123876;28;19956;-54
2023/10/02 06:07:39;;;;;;;;;;;19.60;87.00;;;;;;5116904;28;20359;-55
2023/10/02 06:10:08;;;;;;;;;;;19.60;87.00;;;;;;5116855;28;20485;-55
2023/10/02 06:12:42;;;;;;;;;;;19.60;86.90;;;;;;5098536;28;20295;-55
2023/10/02 06:15:43;;;;;;;;;;;19.60;87.00;;;;;;5117958;28;19908;-54
2023/10/02 06:17:58;;;;;;;;;;;19.50;86.90;;;;;;5116816;28;19919;-54
2023/10/02 06:20:23;;;;;;;;;;;19.60;87.00;;;;;;5116800;28;20275;-55
2023/10/02 06:22:50;;;;;;;;;;;19.60;87.00;;;;;;5116680;28;19908;-54
2023/10/02 06:25:18;;;;;;;;;;;19.60;87.00;;;;;;5116524;28;20379;-55
2023/10/02 06:27:47;;;;;;;;;;;19.60;87.00;;;;;;5098628;28;19908;-54
2023/10/02 06:30:18;;;;;;;;;;;19.60;87.00;;;;;;5116586;28;19992;-55
2023/10/02 06:32:52;;;;;;;;;;;19.60;87.00;;;;;;5098854;28;19961;-54
2023/10/02 06:35:21;;;;;;;;;;;19.60;86.90;;;;;;5123313;28;19915;-55
2023/10/02 06:37:51;;;;;;;;;;;19.60;87.10;;;;;;5098469;28;19908;-55
2023/10/02 06:40:20;;;;;;;;;;;19.60;87.10;;;;;;5116352;28;20287;-55
2023/10/02 06:42:49;;;;;;;;;;;19.50;87.00;;;;;;5098027;28;20006;-54
2023/10/02 06:45:18;;;;;;;;;;;19.60;87.20;;;;;;5116267;28;19912;-54
2023/10/02 06:47:44;;;;;;;;;;;19.60;87.00;;;;;;5098019;28;19994;-54
2023/10/02 06:50:27;;;;;;;;;;;19.60;87.20;;;;;;5116018;28;19947;-55
2023/10/02 06:52:54;;;;;;;;;;;19.50;87.20;;;;;;5094294;28;19920;-55
2023/10/02 06:55:24;;;;;;;;;;;19.50;87.30;;;;;;5095644;28;20407;-54
2023/10/02 06:57:51;;;;;;;;;;;19.50;87.20;;;;;;5102530;28;20006;-55
2023/10/02 07:00:20;;;;;;;;;;;19.50;87.30;;;;;;5095922;28;19927;-55
2023/10/02 07:02:58;;;;;;;;;;;19.50;87.30;;;;;;5095607;28;20009;-55
2023/10/02 07:05:27;;;;;;;;;;;19.50;87.40;;;;;;5094504;28;19915;-54
2023/10/02 07:07:59;;;;;;;;;;;19.50;87.40;;;;;;5095443;28;19908;-55
2023/10/02 07:10:24;;;;;;;;;;;19.60;87.50;;;;;;5102332;28;19912;-54
2023/10/02 07:12:50;;;;;;;;;;;19.60;87.70;;;;;;5095365;28;20058;-55
2023/10/02 07:15:22;;;;;;;;;;;19.50;87.60;;;;;;5095551;28;19915;-55
2023/10/02 07:17:47;;;;;;;;;;;19.60;87.70;;;;;;5102108;28;19931;-54
2023/10/02 07:20:18;;;;;;;;;;;19.50;87.70;;;;;;5095036;28;20024;-54
2023/10/02 07:22:43;;;;;;;;;;;19.60;87.90;;;;;;5095257;28;19908;-55
2023/10/02 07:25:09;;;;;;;;;;;19.60;87.90;;;;;;5095041;28;19965;-55
2023/10/02 07:27:34;;;;;;;;;;;19.60;87.90;;;;;;5095346;28;20003;-56
2023/10/02 07:30:01;;;;;;;;;;;19.50;87.90;;;;;;5093752;28;19908;-54
2023/10/02 07:32:27;;;;;;;;;;;19.60;88.00;;;;;;5095170;28;19982;-54
2023/10/02 07:34:53;;;;;;;;;;;19.60;88.00;;;;;;5093723;28;19954;-54
2023/10/02 07:37:21;;;;;;;;;;;19.60;88.10;;;;;;5095116;28;19908;-54
2023/10/02 07:39:48;;;;;;;;;;;19.60;88.10;;;;;;5093514;28;19991;-55
2023/10/02 07:42:16;;;;;;;;;;;19.60;88.10;;;;;;5094692;28;19961;-55
2023/10/02 07:44:41;;;;;;;;;;;19.60;88.10;;;;;;5094766;28;19909;-54
2023/10/02 07:47:10;;;;;;;;;;;19.60;88.30;;;;;;5094642;28;19957;-54
2023/10/02 07:49:39;;;;;;;;;;;19.70;88.30;;;;;;5094888;28;19940;-55
2023/10/02 07:52:06;;;;;;;;;;;19.70;88.10;;;;;;5106172;28;20414;-55
2023/10/02 07:54:44;;;;;;;;;;;19.70;88.30;;;;;;5114902;28;20011;-55
2023/10/02 07:57:12;;;;;;;;;;;19.70;88.40;;;;;;5121728;28;19983;-55
2023/10/02 07:59:38;;;;;;;;;;;19.70;88.10;;;;;;5114731;28;20283;-54
2023/10/02 08:02:21;;;;;;;;;;;19.70;88.40;;;;;;5114832;28;19963;-55
2023/10/02 08:04:51;;;;;;;;;;;19.70;88.20;;;;;;5121698;28;19977;-55
2023/10/02 08:07:20;;;;;;;;;;;19.70;88.60;;;;;;5114767;28;19961;-55
2023/10/02 08:09:48;;;;;;;;;;;19.70;87.90;;;;;;5114040;28;19998;-55
2023/10/02 08:12:29;;;;;;;;;;;19.70;88.30;;;;;;5114499;28;20398;-55
2023/10/02 08:14:59;;;;;;;;;;;19.80;88.30;;;;;;5114513;28;19908;-55
2023/10/02 08:17:59;;;;;;;;;;;19.80;88.80;;;;;;5096498;28;19914;-55
2023/10/02 08:20:16;;;;;;;;;;;19.90;88.10;;;;;;5114059;28;19937;-54
2023/10/02 08:22:44;;;;;;;;;;;19.90;88.30;;;;;;5096487;28;19948;-54
2023/10/02 08:25:13;;;;;;;;;;;19.90;88.10;;;;;;5114285;28;19908;-54
2023/10/02 08:27:42;;;;;;;;;;;19.90;88.30;;;;;;5096557;28;19911;-55
2023/10/02 08:30:26;;;;;;;;;;;19.90;87.80;;;;;;5114134;28;19908;-55
2023/10/02 08:32:53;;;;;;;;;;;19.90;87.90;;;;;;5121069;28;19908;-55
2023/10/02 08:35:19;;;;;;;;;;;19.90;87.90;;;;;;5114209;28;19953;-55
2023/10/02 08:37:45;;;;;;;;;;;19.90;88.00;;;;;;5114087;28;19960;-55
2023/10/02 08:40:11;;;;;;;;;;;20.00;87.90;;;;;;5114053;28;20443;-54
2023/10/02 08:42:46;;;;;;;;;;;20.00;87.90;;;;;;5114014;28;19942;-53
2023/10/02 08:45:18;;;;;;;;;;;19.90;87.80;;;;;;5095709;28;20017;-54
2023/10/02 08:47:46;;;;;;;;;;;19.90;87.90;;;;;;5095595;28;19943;-55
2023/10/02 08:50:15;;;;;;;;;;;20.00;87.70;;;;;;5113965;28;19961;-55
2023/10/02 08:52:42;;;;;;;;;;;19.90;87.70;;;;;;5095442;28;20287;-55
2023/10/02 08:55:36;;;;;;;;;;;20.00;87.70;;;;;;5113641;28;19957;-55
2023/10/02 08:58:19;;;;;;;;;;;20.00;87.70;;;;;;5113794;28;19908;-55
2023/10/02 09:01:37;;;;;;;;;;;20.00;88.00;;;;;;5097913;28;19916;-55
2023/10/02 09:03:47;;;;;;;;;;;20.00;87.90;;;;;;5102682;28;19945;-54
2023/10/02 09:06:25;;;;;;;;;;;20.00;88.20;;;;;;5113672;28;20383;-55
2023/10/02 09:11:35;;;;;;;;;;;20.10;87.90;;;;;;5113568;28;20326;-55
2023/10/02 09:14:16;;;;;;;;;;;20.20;87.90;;;;;;5113468;28;19907;-54
2023/10/02 09:16:45;;;;;;;;;;;20.20;87.80;;;;;;5104370;28;19965;-54
2023/10/02 09:19:28;;;;;;;;;;;20.20;87.60;;;;;;5113197;28;19908;-55
2023/10/02 09:22:06;;;;;;;;;;;20.20;87.50;;;;;;5119474;28;19986;-53
2023/10/02 09:24:33;;;;;;;;;;;20.20;87.80;;;;;;5113614;28;20325;-55
2023/10/02 09:27:20;;;;;;;;;;;20.20;87.90;;;;;;5113297;28;19907;-55
2023/10/02 09:29:45;;;;;;;;;;;20.30;87.90;;;;;;5113111;28;20352;-54
2023/10/02 09:32:21;;;;;;;;;;;20.20;87.70;;;;;;5113313;28;19943;-54
2023/10/02 09:35:08;;;;;;;;;;;20.30;87.80;;;;;;5113626;28;19926;-54
2023/10/02 09:37:35;;;;;;;;;;;20.30;87.60;;;;;;5120064;28;20001;-55
2023/10/02 09:40:04;;;;;;;;;;;20.30;87.50;;;;;;5095132;28;19912;-55
2023/10/02 09:42:33;;;;;;;;;;;20.40;87.50;;;;;;5113183;28;19947;-55
2023/10/02 09:44:58;;;;;;;;;;;20.40;87.50;;;;;;5095208;28;19915;-55
2023/10/02 09:47:25;;;;;;;;;;;20.40;87.50;;;;;;5094987;28;19908;-55
2023/10/02 09:50:10;;;;;;;;;;;20.30;87.40;;;;;;5113139;28;20291;-54
2023/10/02 09:52:39;;;;;;;;;;;20.30;87.50;;;;;;5114443;28;19916;-54
2023/10/02 09:55:14;;;;;;;;;;;20.30;87.70;;;;;;5095204;28;19908;-55
2023/10/02 09:57:49;;;;;;;;;;;20.30;87.70;;;;;;5112877;28;19955;-54
2023/10/02 10:03:22;;;;;;;;;;;20.30;87.90;;;;;;5112797;28;19915;-55
2023/10/02 10:06:05;;;;;;;;;;;20.30;87.80;;;;;;5112844;28;20340;-55
2023/10/02 10:09:19;;;;;;;;;;;20.40;87.80;;;;;;5112829;28;19908;-55
2023/10/02 10:11:36;;;;;;;;;;;20.50;87.60;;;;;;5112692;28;20003;-54
2023/10/02 10:14:35;;;;;;;;;;;20.50;87.50;;;;;;5112474;28;19951;-55
2023/10/02 10:17:16;;;;;;;;;;;20.50;87.60;;;;;;5119766;28;19908;-55
2023/10/02 10:19:53;;;;;;;;;;;20.50;87.60;;;;;;5112210;28;19919;-55
2023/10/02 10:22:38;;;;;;;;;;;20.50;87.60;;;;;;5112556;28;19908;-56
2023/10/02 10:30:50;;;;;;;;;;;20.60;87.60;;;;;;5119540;28;20390;-55
2023/10/02 10:33:20;;;;;;;;;;;20.60;87.30;;;;;;5115044;28;20364;-55
2023/10/02 10:35:57;;;;;;;;;;;20.70;87.40;;;;;;5123227;28;19908;-54
2023/10/02 10:38:26;;;;;;;;;;;20.70;87.30;;;;;;5116180;28;19915;-54
2023/10/02 10:41:00;;;;;;;;;;;20.80;87.00;;;;;;5116091;28;19911;-54
2023/10/02 10:43:55;;;;;;;;;;;20.80;86.90;;;;;;5116208;28;20427;-54
2023/10/02 10:46:24;;;;;;;;;;;20.80;86.70;;;;;;5116249;28;20329;-54
2023/10/02 10:49:07;;;;;;;;;;;20.80;86.60;;;;;;5116030;28;20367;-55
2023/10/02 10:51:36;;;;;;;;;;;20.90;86.50;;;;;;5120311;28;19998;-55
2023/10/02 10:54:41;;;;;;;;;;;20.90;86.10;;;;;;5097785;28;19946;-54
2023/10/02 10:57:19;;;;;;;;;;;20.90;85.90;;;;;;5113141;28;19957;-54
2023/10/02 10:59:45;;;;;;;;;;;21.00;85.60;;;;;;5097440;28;20003;-54
2023/10/02 11:02:12;;;;;;;;;;;21.10;85.50;;;;;;5115706;28;19907;-55
2023/10/02 11:04:41;;;;;;;;;;;21.10;85.40;;;;;;5115775;28;19907;-55
2023/10/02 11:07:19;;;;;;;;;;;21.10;85.20;;;;;;5115624;28;20002;-55
2023/10/02 11:10:18;;;;;;;;;;;21.20;85.20;;;;;;5106252;28;19912;-54
2023/10/02 11:12:59;;;;;;;;;;;21.20;85.10;;;;;;5115719;28;19908;-55
2023/10/02 11:15:46;;;;;;;;;;;21.20;85.20;;;;;;5099344;28;19907;-54
2023/10/02 11:18:23;;;;;;;;;;;21.30;85.70;;;;;;5100136;28;20379;-55
2023/10/02 11:20:54;;;;;;;;;;;21.20;85.20;;;;;;5115353;28;19911;-55
2023/10/02 11:23:45;;;;;;;;;;;21.20;85.40;;;;;;5115340;28;19969;-54
2023/10/02 11:26:13;;;;;;;;;;;21.20;85.40;;;;;;5115395;28;19907;-54
2023/10/02 11:28:40;;;;;;;;;;;21.20;85.10;;;;;;5115525;28;19930;-54
2023/10/02 11:31:32;;;;;;;;;;;21.20;85.10;;;;;;5115320;28;19912;-55
2023/10/02 11:34:03;;;;;;;;;;;21.20;85.40;;;;;;5115371;28;20395;-55
2023/10/02 11:36:33;;;;;;;;;;;21.20;85.50;;;;;;5115267;28;19908;-54
2023/10/02 11:39:00;;;;;;;;;;;21.20;85.50;;;;;;5097715;28;19908;-55
2023/10/02 11:41:27;;;;;;;;;;;21.10;85.40;;;;;;5115114;28;20329;-54
2023/10/02 11:43:56;;;;;;;;;;;21.10;85.70;;;;;;5114082;28;19907;-55
2023/10/02 11:46:21;;;;;;;;;;;21.10;85.70;;;;;;5115147;28;20264;-54
2023/10/02 11:48:51;;;;;;;;;;;21.10;85.80;;;;;;5115207;28;19999;-55
2023/10/02 11:51:16;;;;;;;;;;;21.10;86.10;;;;;;5114548;28;19916;-54
2023/10/02 11:53:42;;;;;;;;;;;21.10;86.10;;;;;;5114719;28;20334;-55
2023/10/02 11:56:07;;;;;;;;;;;21.10;86.10;;;;;;5114613;28;19976;-55
2023/10/02 11:58:33;;;;;;;;;;;21.10;86.00;;;;;;5114802;28;20037;-54
2023/10/02 12:01:02;;;;;;;;;;;21.10;86.20;;;;;;5114498;28;20010;-54
2023/10/02 12:03:27;;;;;;;;;;;21.20;86.40;;;;;;5114726;28;19908;-55
2023/10/02 12:05:54;;;;;;;;;;;21.20;86.20;;;;;;5114512;28;19914;-55
2023/10/02 12:08:21;;;;;;;;;;;21.30;86.00;;;;;;5114514;28;20287;-56
2023/10/02 12:10:47;;;;;;;;;;;21.30;85.70;;;;;;5114439;28;19912;-55
2023/10/02 12:13:12;;;;;;;;;;;21.30;85.80;;;;;;5114085;28;19999;-55
2023/10/02 12:15:38;;;;;;;;;;;21.30;86.00;;;;;;5114330;28;19915;-55
2023/10/02 12:18:04;;;;;;;;;;;21.20;86.00;;;;;;5114328;28;19915;-55
2023/10/02 12:20:30;;;;;;;;;;;21.20;86.40;;;;;;5114302;28;20421;-55
2023/10/02 12:22:56;;;;;;;;;;;21.20;86.50;;;;;;5114313;28;19908;-54
2023/10/02 12:25:21;;;;;;;;;;;21.20;86.50;;;;;;5114298;28;20388;-55
2023/10/02 12:27:49;;;;;;;;;;;21.20;86.50;;;;;;5096131;28;19960;-55
2023/10/02 12:30:15;;;;;;;;;;;21.20;86.60;;;;;;5114022;28;20409;-54
2023/10/02 12:32:41;;;;;;;;;;;21.20;86.70;;;;;;5095850;28;19908;-55
2023/10/02 12:35:06;;;;;;;;;;;21.20;87.00;;;;;;5114080;28;20385;-54
2023/10/02 12:37:32;;;;;;;;;;;21.20;86.90;;;;;;5114004;28;19908;-55
2023/10/02 12:39:58;;;;;;;;;;;21.10;87.00;;;;;;5113815;28;19912;-55
2023/10/02 12:42:23;;;;;;;;;;;21.10;87.00;;;;;;5113824;28;19907;-55
2023/10/02 12:44:49;;;;;;;;;;;21.10;87.10;;;;;;5113974;28;19957;-56
2023/10/02 12:47:15;;;;;;;;;;;21.10;87.00;;;;;;5113783;28;19915;-55
2023/10/02 12:49:40;;;;;;;;;;;21.10;87.30;;;;;;5113877;28;19907;-54
2023/10/02 12:52:06;;;;;;;;;;;21.10;87.30;;;;;;5113673;28;19915;-55
2023/10/02 12:54:31;;;;;;;;;;;21.20;87.50;;;;;;5113454;28;19931;-55
2023/10/02 12:56:57;;;;;;;;;;;21.30;87.30;;;;;;5113715;28;19998;-54
2023/10/02 12:59:23;;;;;;;;;;;21.30;87.10;;;;;;5113477;28;19915;-55
2023/10/02 13:01:50;;;;;;;;;;;21.30;86.80;;;;;;5113542;28;20002;-55
2023/10/02 13:04:15;;;;;;;;;;;21.40;86.70;;;;;;5113593;28;19908;-55
2023/10/02 13:06:42;;;;;;;;;;;21.40;86.50;;;;;;5113558;28;19953;-54
2023/10/02 13:09:14;;;;;;;;;;;21.50;86.30;;;;;;5113444;28;20436;-55
2023/10/02 13:11:40;;;;;;;;;;;21.50;86.10;;;;;;5095336;28;19912;-55
2023/10/02 13:14:06;;;;;;;;;;;21.60;85.90;;;;;;5113448;28;19961;-55
2023/10/02 13:16:32;;;;;;;;;;;21.60;85.80;;;;;;5113437;28;19950;-55
2023/10/02 13:18:57;;;;;;;;;;;21.60;86.00;;;;;;5113393;28;19951;-55
2023/10/02 13:21:24;;;;;;;;;;;21.50;86.30;;;;;;5095098;28;19912;-54
2023/10/02 13:23:49;;;;;;;;;;;21.50;86.50;;;;;;5113422;28;19947;-55
2023/10/02 13:26:16;;;;;;;;;;;21.50;86.70;;;;;;5113572;28;19965;-55
2023/10/02 13:28:47;;;;;;;;;;;21.40;87.00;;;;;;5113244;28;19912;-54
2023/10/02 13:31:13;;;;;;;;;;;21.30;87.20;;;;;;5120094;28;19918;-55
2023/10/02 13:33:40;;;;;;;;;;;21.30;87.50;;;;;;5113257;28;20343;-55
2023/10/02 13:36:09;;;;;;;;;;;21.30;87.70;;;;;;5113205;28;19931;-54
2023/10/02 13:38:35;;;;;;;;;;;21.30;87.80;;;;;;5113293;28;20295;-55
2023/10/02 13:41:10;;;;;;;;;;;21.40;87.70;;;;;;5113018;28;20008;-55
2023/10/02 13:43:37;;;;;;;;;;;21.30;87.90;;;;;;5113320;28;20371;-55
2023/10/02 13:46:07;;;;;;;;;;;21.30;87.90;;;;;;5113140;28;19907;-54
2023/10/02 13:48:33;;;;;;;;;;;21.30;88.00;;;;;;5113153;28;19908;-55
2023/10/02 13:51:02;;;;;;;;;;;21.30;88.20;;;;;;5113059;28;19914;-55
2023/10/02 13:53:27;;;;;;;;;;;21.30;88.10;;;;;;5120168;28;20331;-54
2023/10/02 13:55:53;;;;;;;;;;;21.30;88.30;;;;;;5113161;28;19912;-55
2023/10/02 13:58:18;;;;;;;;;;;21.30;88.20;;;;;;5113110;28;19931;-54
2023/10/02 14:00:45;;;;;;;;;;;21.30;88.30;;;;;;5112909;28;19916;-54
2023/10/02 14:03:12;;;;;;;;;;;21.30;88.40;;;;;;5112924;28;19999;-54
2023/10/02 14:05:39;;;;;;;;;;;21.30;88.40;;;;;;5094671;28;19908;-55
2023/10/02 14:08:05;;;;;;;;;;;21.30;88.30;;;;;;5097463;28;19969;-55
2023/10/02 14:10:30;;;;;;;;;;;21.30;88.50;;;;;;5117018;28;20372;-55
2023/10/02 14:12:56;;;;;;;;;;;21.30;88.70;;;;;;5116987;28;19908;-55
2023/10/02 14:15:21;;;;;;;;;;;21.30;88.80;;;;;;5116905;28;19949;-55
2023/10/02 14:17:47;;;;;;;;;;;21.30;88.80;;;;;;5098702;28;20292;-54
2023/10/02 14:20:15;;;;;;;;;;;21.30;88.90;;;;;;5116768;28;20530;-55
2023/10/02 14:22:41;;;;;;;;;;;21.30;88.90;;;;;;5098516;28;19908;-55
2023/10/02 14:25:07;;;;;;;;;;;21.30;88.90;;;;;;5116699;28;19907;-55
2023/10/02 14:27:33;;;;;;;;;;;21.30;88.80;;;;;;5116727;28;20317;-55
2023/10/02 14:29:58;;;;;;;;;;;21.30;89.00;;;;;;5116579;28;19915;-55
2023/10/02 14:32:24;;;;;;;;;;;21.30;89.10;;;;;;5116614;28;19915;-54
2023/10/02 14:34:52;;;;;;;;;;;21.30;88.90;;;;;;5116724;28;20395;-54
2023/10/02 14:37:17;;;;;;;;;;;21.30;89.10;;;;;;5116421;28;19916;-54
2023/10/02 14:39:43;;;;;;;;;;;21.30;89.10;;;;;;5116367;28;20006;-54
2023/10/02 14:42:11;;;;;;;;;;;21.30;89.20;;;;;;5116311;28;20394;-55
2023/10/02 14:44:36;;;;;;;;;;;21.30;89.10;;;;;;5116370;28;19915;-55
2023/10/02 14:47:02;;;;;;;;;;;21.30;89.30;;;;;;5116318;28;19908;-56
2023/10/02 14:49:27;;;;;;;;;;;21.20;89.40;;;;;;5116294;28;19908;-54
2023/10/02 14:51:53;;;;;;;;;;;21.30;89.30;;;;;;5116020;28;19959;-54
2023/10/02 14:54:18;;;;;;;;;;;21.30;89.40;;;;;;5097900;28;19907;-55
2023/10/02 14:56:44;;;;;;;;;;;21.30;89.40;;;;;;5116096;28;19930;-54
2023/10/02 14:59:09;;;;;;;;;;;21.30;89.40;;;;;;5097976;28;19933;-55
2023/10/02 15:01:35;;;;;;;;;;;21.20;89.40;;;;;;5115961;28;20299;-54
2023/10/02 15:04:00;;;;;;;;;;;21.20;89.70;;;;;;5116206;28;19908;-56
2023/10/02 15:06:27;;;;;;;;;;;21.20;89.80;;;;;;5116043;28;19908;-55